sensor_id;sensor_type;location;lat;lon;timestamp;P1;durP1;ratioP1;P2;durP2;ratioP2
69856;SDS011;57147;53.582;10.112;2023-06-22T00:03:00;4.05;;;2.40;;
69856;SDS011;57147;53.582;10.112;2023-06-22T00:08:04;5.13;;;2.67;;
69856;SDS011;57147;53.582;10.112;2023-06-22T00:13:05;3.60;;;2.50;;
69856;SDS011;57147;53.582;10.112;2023-06-22T00:18:06;8.93;;;6.47;;
69856;SDS011;57147;53.582;10.112;2023-06-22T00:23:11;5.47;;;4.15;;
69856;SDS011;57147;53.582;10.112;2023-06-22T00:28:11;5.63;;;3.95;;
69856;SDS011;57147;53.582;10.112;2023-06-22T00:33:12;5.05;;;3.28;;
69856;SDS011;57147;53.582;10.112;2023-06-22T00:38:15;12.07;;;8.73;;
69856;SDS011;57147;53.582;10.112;2023-06-22T00:43:16;12.70;;;10.27;;
69856;SDS011;57147;53.582;10.112;2023-06-22T00:48:16;7.78;;;5.38;;
69856;SDS011;57147;53.582;10.112;2023-06-22T00:53:20;4.88;;;2.80;;
69856;SDS011;57147;53.582;10.112;2023-06-22T00:58:21;5.72;;;3.58;;
69856;SDS011;57147;53.582;10.112;2023-06-22T01:03:22;4.82;;;3.67;;
69856;SDS011;57147;53.582;10.112;2023-06-22T01:08:26;4.28;;;3.17;;
69856;SDS011;57147;53.582;10.112;2023-06-22T01:13:35;4.07;;;3.28;;
69856;SDS011;57147;53.582;10.112;2023-06-22T01:18:41;5.68;;;2.78;;
69856;SDS011;57147;53.582;10.112;2023-06-22T01:29:13;4.07;;;3.15;;
69856;SDS011;57147;53.582;10.112;2023-06-22T01:34:15;3.88;;;3.15;;
69856;SDS011;57147;53.582;10.112;2023-06-22T01:39:17;4.45;;;2.80;;
69856;SDS011;57147;53.582;10.112;2023-06-22T01:44:22;4.80;;;2.97;;
69856;SDS011;57147;53.582;10.112;2023-06-22T01:49:24;3.67;;;2.58;;
69856;SDS011;57147;53.582;10.112;2023-06-22T01:54:27;5.25;;;3.03;;
69856;SDS011;57147;53.582;10.112;2023-06-22T01:59:31;4.97;;;4.45;;
69856;SDS011;57147;53.582;10.112;2023-06-22T02:04:36;5.65;;;3.00;;
69856;SDS011;57147;53.582;10.112;2023-06-22T02:09:42;6.43;;;3.78;;
69856;SDS011;57147;53.582;10.112;2023-06-22T02:14:47;5.38;;;3.55;;
69856;SDS011;57147;53.582;10.112;2023-06-22T02:19:48;4.47;;;3.17;;
69856;SDS011;57147;53.582;10.112;2023-06-22T02:24:49;6.55;;;3.72;;
69856;SDS011;57147;53.582;10.112;2023-06-22T02:29:52;4.72;;;3.17;;
69856;SDS011;57147;53.582;10.112;2023-06-22T02:34:52;5.55;;;3.58;;
69856;SDS011;57147;53.582;10.112;2023-06-22T02:39:53;5.68;;;4.18;;
69856;SDS011;57147;53.582;10.112;2023-06-22T02:44:56;5.70;;;4.43;;
69856;SDS011;57147;53.582;10.112;2023-06-22T02:49:57;5.18;;;4.18;;
69856;SDS011;57147;53.582;10.112;2023-06-22T02:54:57;5.80;;;4.65;;
69856;SDS011;57147;53.582;10.112;2023-06-22T03:00:01;4.63;;;3.15;;
69856;SDS011;57147;53.582;10.112;2023-06-22T03:05:03;5.03;;;3.20;;
69856;SDS011;57147;53.582;10.112;2023-06-22T03:10:05;5.95;;;4.00;;
69856;SDS011;57147;53.582;10.112;2023-06-22T03:15:10;6.60;;;3.70;;
69856;SDS011;57147;53.582;10.112;2023-06-22T03:20:11;6.43;;;4.18;;
69856;SDS011;57147;53.582;10.112;2023-06-22T03:25:12;4.75;;;3.88;;
69856;SDS011;57147;53.582;10.112;2023-06-22T03:30:15;5.70;;;4.00;;
69856;SDS011;57147;53.582;10.112;2023-06-22T03:35:16;4.70;;;3.65;;
69856;SDS011;57147;53.582;10.112;2023-06-22T03:40:16;5.57;;;4.43;;
69856;SDS011;57147;53.582;10.112;2023-06-22T03:45:20;5.05;;;3.83;;
69856;SDS011;57147;53.582;10.112;2023-06-22T03:50:20;5.30;;;3.45;;
69856;SDS011;57147;53.582;10.112;2023-06-22T03:55:21;5.35;;;3.47;;
69856;SDS011;57147;53.582;10.112;2023-06-22T04:00:24;5.55;;;4.47;;
69856;SDS011;57147;53.582;10.112;2023-06-22T04:05:25;5.10;;;3.38;;
69856;SDS011;57147;53.582;10.112;2023-06-22T04:10:25;6.13;;;3.97;;
69856;SDS011;57147;53.582;10.112;2023-06-22T04:15:28;7.18;;;4.40;;
69856;SDS011;57147;53.582;10.112;2023-06-22T04:20:29;5.18;;;3.47;;
69856;SDS011;57147;53.582;10.112;2023-06-22T04:25:31;5.13;;;3.25;;
69856;SDS011;57147;53.582;10.112;2023-06-22T04:30:34;5.65;;;3.85;;
69856;SDS011;57147;53.582;10.112;2023-06-22T04:35:35;6.15;;;3.72;;
69856;SDS011;57147;53.582;10.112;2023-06-22T04:40:35;5.85;;;4.50;;
69856;SDS011;57147;53.582;10.112;2023-06-22T04:45:38;7.10;;;4.72;;
69856;SDS011;57147;53.582;10.112;2023-06-22T04:50:39;6.63;;;3.95;;
69856;SDS011;57147;53.582;10.112;2023-06-22T04:55:40;6.85;;;4.10;;
69856;SDS011;57147;53.582;10.112;2023-06-22T05:00:43;5.32;;;3.63;;
69856;SDS011;57147;53.582;10.112;2023-06-22T05:05:43;6.03;;;3.67;;
69856;SDS011;57147;53.582;10.112;2023-06-22T05:10:44;6.30;;;3.15;;
69856;SDS011;57147;53.582;10.112;2023-06-22T05:15:47;6.07;;;3.53;;
69856;SDS011;57147;53.582;10.112;2023-06-22T05:20:47;4.65;;;2.72;;
69856;SDS011;57147;53.582;10.112;2023-06-22T05:25:48;5.88;;;2.67;;
69856;SDS011;57147;53.582;10.112;2023-06-22T05:30:51;3.25;;;1.98;;
69856;SDS011;57147;53.582;10.112;2023-06-22T05:35:52;3.90;;;2.08;;
69856;SDS011;57147;53.582;10.112;2023-06-22T05:40:52;5.22;;;2.50;;
69856;SDS011;57147;53.582;10.112;2023-06-22T05:45:55;4.35;;;2.33;;
69856;SDS011;57147;53.582;10.112;2023-06-22T05:50:56;5.15;;;1.63;;
69856;SDS011;57147;53.582;10.112;2023-06-22T05:55:57;4.28;;;1.67;;
69856;SDS011;57147;53.582;10.112;2023-06-22T06:01:00;4.60;;;1.77;;
69856;SDS011;57147;53.582;10.112;2023-06-22T06:06:01;3.08;;;1.98;;
69856;SDS011;57147;53.582;10.112;2023-06-22T06:11:01;3.13;;;1.77;;
69856;SDS011;57147;53.582;10.112;2023-06-22T06:16:05;3.58;;;1.80;;
69856;SDS011;57147;53.582;10.112;2023-06-22T06:21:05;5.18;;;1.48;;
69856;SDS011;57147;53.582;10.112;2023-06-22T06:26:06;4.18;;;1.63;;
69856;SDS011;57147;53.582;10.112;2023-06-22T06:31:09;2.63;;;1.88;;
69856;SDS011;57147;53.582;10.112;2023-06-22T06:36:10;4.88;;;2.25;;
69856;SDS011;57147;53.582;10.112;2023-06-22T06:41:10;4.25;;;2.10;;
69856;SDS011;57147;53.582;10.112;2023-06-22T06:46:13;4.05;;;2.28;;
69856;SDS011;57147;53.582;10.112;2023-06-22T06:51:14;3.00;;;1.98;;
69856;SDS011;57147;53.582;10.112;2023-06-22T06:56:14;3.83;;;1.67;;
69856;SDS011;57147;53.582;10.112;2023-06-22T07:01:18;1.77;;;0.73;;
69856;SDS011;57147;53.582;10.112;2023-06-22T07:06:19;3.97;;;2.25;;
69856;SDS011;57147;53.582;10.112;2023-06-22T07:11:19;6.63;;;3.25;;
69856;SDS011;57147;53.582;10.112;2023-06-22T07:16:22;4.43;;;2.10;;
69856;SDS011;57147;53.582;10.112;2023-06-22T07:21:23;5.75;;;3.50;;
69856;SDS011;57147;53.582;10.112;2023-06-22T07:26:23;2.20;;;1.20;;
69856;SDS011;57147;53.582;10.112;2023-06-22T07:31:27;4.10;;;1.42;;
69856;SDS011;57147;53.582;10.112;2023-06-22T07:36:27;2.92;;;2.05;;
69856;SDS011;57147;53.582;10.112;2023-06-22T07:41:28;3.40;;;1.88;;
69856;SDS011;57147;53.582;10.112;2023-06-22T07:46:31;5.05;;;2.65;;
69856;SDS011;57147;53.582;10.112;2023-06-22T07:51:32;2.92;;;1.27;;
69856;SDS011;57147;53.582;10.112;2023-06-22T07:56:32;2.75;;;1.73;;
69856;SDS011;57147;53.582;10.112;2023-06-22T08:01:35;3.85;;;1.70;;
69856;SDS011;57147;53.582;10.112;2023-06-22T08:06:36;5.22;;;3.00;;
69856;SDS011;57147;53.582;10.112;2023-06-22T08:11:37;2.97;;;1.85;;
69856;SDS011;57147;53.582;10.112;2023-06-22T08:16:40;4.65;;;1.88;;
69856;SDS011;57147;53.582;10.112;2023-06-22T08:21:41;4.53;;;2.22;;
69856;SDS011;57147;53.582;10.112;2023-06-22T08:26:42;6.70;;;4.85;;
69856;SDS011;57147;53.582;10.112;2023-06-22T08:31:45;4.53;;;1.85;;
69856;SDS011;57147;53.582;10.112;2023-06-22T08:36:46;5.45;;;3.17;;
69856;SDS011;57147;53.582;10.112;2023-06-22T08:41:47;4.72;;;2.05;;
69856;SDS011;57147;53.582;10.112;2023-06-22T08:46:50;3.70;;;1.67;;
69856;SDS011;57147;53.582;10.112;2023-06-22T08:51:51;2.10;;;0.98;;
69856;SDS011;57147;53.582;10.112;2023-06-22T08:56:52;3.08;;;2.20;;
69856;SDS011;57147;53.582;10.112;2023-06-22T09:01:55;1.88;;;0.90;;
69856;SDS011;57147;53.582;10.112;2023-06-22T09:06:56;1.90;;;0.90;;
69856;SDS011;57147;53.582;10.112;2023-06-22T09:11:56;4.28;;;1.90;;
69856;SDS011;57147;53.582;10.112;2023-06-22T09:16:59;2.58;;;0.88;;
69856;SDS011;57147;53.582;10.112;2023-06-22T09:22:00;2.25;;;0.55;;
69856;SDS011;57147;53.582;10.112;2023-06-22T09:27:01;1.45;;;0.60;;
69856;SDS011;57147;53.582;10.112;2023-06-22T09:32:05;3.53;;;1.05;;
69856;SDS011;57147;53.582;10.112;2023-06-22T09:37:06;1.83;;;0.77;;
69856;SDS011;57147;53.582;10.112;2023-06-22T09:42:07;3.50;;;1.88;;
69856;SDS011;57147;53.582;10.112;2023-06-22T09:47:10;2.63;;;2.05;;
69856;SDS011;57147;53.582;10.112;2023-06-22T09:52:11;1.58;;;0.70;;
69856;SDS011;57147;53.582;10.112;2023-06-22T09:57:12;2.15;;;0.65;;
69856;SDS011;57147;53.582;10.112;2023-06-22T10:02:15;1.67;;;0.90;;
69856;SDS011;57147;53.582;10.112;2023-06-22T10:07:15;2.75;;;1.77;;
69856;SDS011;57147;53.582;10.112;2023-06-22T10:12:16;3.08;;;1.42;;
69856;SDS011;57147;53.582;10.112;2023-06-22T10:17:19;4.20;;;1.05;;
69856;SDS011;57147;53.582;10.112;2023-06-22T10:22:20;2.15;;;1.33;;
69856;SDS011;57147;53.582;10.112;2023-06-22T10:27:21;2.08;;;1.08;;
69856;SDS011;57147;53.582;10.112;2023-06-22T10:32:24;2.08;;;1.08;;
69856;SDS011;57147;53.582;10.112;2023-06-22T10:37:24;3.15;;;1.67;;
69856;SDS011;57147;53.582;10.112;2023-06-22T10:42:25;1.67;;;0.88;;
69856;SDS011;57147;53.582;10.112;2023-06-22T10:47:28;2.70;;;1.77;;
69856;SDS011;57147;53.582;10.112;2023-06-22T10:52:29;2.25;;;1.05;;
69856;SDS011;57147;53.582;10.112;2023-06-22T10:57:30;2.58;;;1.42;;
69856;SDS011;57147;53.582;10.112;2023-06-22T11:02:33;2.13;;;0.95;;
69856;SDS011;57147;53.582;10.112;2023-06-22T11:07:34;2.97;;;1.50;;
69856;SDS011;57147;53.582;10.112;2023-06-22T11:12:34;3.75;;;1.63;;
69856;SDS011;57147;53.582;10.112;2023-06-22T11:17:37;2.08;;;1.10;;
69856;SDS011;57147;53.582;10.112;2023-06-22T11:22:38;2.38;;;1.33;;
69856;SDS011;57147;53.582;10.112;2023-06-22T11:27:39;2.20;;;1.35;;
69856;SDS011;57147;53.582;10.112;2023-06-22T11:32:43;3.45;;;1.40;;
69856;SDS011;57147;53.582;10.112;2023-06-22T11:37:43;3.00;;;2.15;;
69856;SDS011;57147;53.582;10.112;2023-06-22T11:42:44;2.95;;;2.42;;
69856;SDS011;57147;53.582;10.112;2023-06-22T11:47:47;2.17;;;1.60;;
69856;SDS011;57147;53.582;10.112;2023-06-22T11:57:53;2.90;;;1.63;;
69856;SDS011;57147;53.582;10.112;2023-06-22T12:02:57;2.97;;;2.00;;
69856;SDS011;57147;53.582;10.112;2023-06-22T12:07:58;3.67;;;2.28;;
69856;SDS011;57147;53.582;10.112;2023-06-22T12:12:58;4.03;;;2.40;;
69856;SDS011;57147;53.582;10.112;2023-06-22T12:18:02;7.13;;;2.47;;
69856;SDS011;57147;53.582;10.112;2023-06-22T12:28:04;3.07;;;1.87;;
69856;SDS011;57147;53.582;10.112;2023-06-22T12:33:07;2.80;;;2.03;;
69856;SDS011;57147;53.582;10.112;2023-06-22T12:38:07;3.78;;;2.53;;
69856;SDS011;57147;53.582;10.112;2023-06-22T12:43:08;5.35;;;4.22;;
69856;SDS011;57147;53.582;10.112;2023-06-22T12:48:12;3.25;;;2.92;;
69856;SDS011;57147;53.582;10.112;2023-06-22T12:53:12;2.28;;;1.98;;
69856;SDS011;57147;53.582;10.112;2023-06-22T12:58:23;3.13;;;1.90;;
69856;SDS011;57147;53.582;10.112;2023-06-22T13:03:26;2.67;;;2.03;;
69856;SDS011;57147;53.582;10.112;2023-06-22T13:08:27;3.05;;;1.73;;
69856;SDS011;57147;53.582;10.112;2023-06-22T13:13:29;2.65;;;2.15;;
69856;SDS011;57147;53.582;10.112;2023-06-22T13:18:32;2.50;;;1.77;;
69856;SDS011;57147;53.582;10.112;2023-06-22T13:23:33;3.60;;;2.28;;
69856;SDS011;57147;53.582;10.112;2023-06-22T13:28:34;5.63;;;3.08;;
69856;SDS011;57147;53.582;10.112;2023-06-22T13:33:37;5.00;;;3.17;;
69856;SDS011;57147;53.582;10.112;2023-06-22T13:38:38;2.35;;;1.50;;
69856;SDS011;57147;53.582;10.112;2023-06-22T13:43:39;2.90;;;2.53;;
69856;SDS011;57147;53.582;10.112;2023-06-22T13:48:43;4.55;;;3.22;;
69856;SDS011;57147;53.582;10.112;2023-06-22T13:53:43;5.13;;;2.58;;
69856;SDS011;57147;53.582;10.112;2023-06-22T13:58:44;4.85;;;2.28;;
69856;SDS011;57147;53.582;10.112;2023-06-22T14:03:48;3.90;;;2.92;;
69856;SDS011;57147;53.582;10.112;2023-06-22T14:08:48;3.03;;;2.08;;
69856;SDS011;57147;53.582;10.112;2023-06-22T14:13:50;3.08;;;1.70;;
69856;SDS011;57147;53.582;10.112;2023-06-22T14:18:53;3.83;;;2.88;;
69856;SDS011;57147;53.582;10.112;2023-06-22T14:23:54;7.13;;;5.50;;
69856;SDS011;57147;53.582;10.112;2023-06-22T14:28:55;4.40;;;3.22;;
69856;SDS011;57147;53.582;10.112;2023-06-22T14:33:58;3.58;;;2.72;;
69856;SDS011;57147;53.582;10.112;2023-06-22T14:38:59;5.72;;;3.90;;
69856;SDS011;57147;53.582;10.112;2023-06-22T14:44:00;6.13;;;4.25;;
69856;SDS011;57147;53.582;10.112;2023-06-22T14:49:04;4.13;;;3.15;;
69856;SDS011;57147;53.582;10.112;2023-06-22T14:54:04;4.72;;;3.33;;
69856;SDS011;57147;53.582;10.112;2023-06-22T14:59:05;4.22;;;3.63;;
69856;SDS011;57147;53.582;10.112;2023-06-22T15:04:09;4.07;;;3.67;;
69856;SDS011;57147;53.582;10.112;2023-06-22T15:14:10;5.93;;;4.28;;
69856;SDS011;57147;53.582;10.112;2023-06-22T15:19:16;4.78;;;2.88;;
69856;SDS011;57147;53.582;10.112;2023-06-22T15:24:17;4.65;;;2.50;;
69856;SDS011;57147;53.582;10.112;2023-06-22T15:29:18;4.13;;;2.92;;
69856;SDS011;57147;53.582;10.112;2023-06-22T15:34:22;3.83;;;2.92;;
69856;SDS011;57147;53.582;10.112;2023-06-22T15:44:23;3.55;;;2.55;;
69856;SDS011;57147;53.582;10.112;2023-06-22T15:49:27;3.25;;;2.22;;
69856;SDS011;57147;53.582;10.112;2023-06-22T15:59:28;3.95;;;2.38;;
69856;SDS011;57147;53.582;10.112;2023-06-22T16:04:31;4.10;;;2.33;;
69856;SDS011;57147;53.582;10.112;2023-06-22T16:09:32;3.50;;;1.85;;
69856;SDS011;57147;53.582;10.112;2023-06-22T16:14:33;2.85;;;1.98;;
69856;SDS011;57147;53.582;10.112;2023-06-22T16:19:37;3.53;;;2.25;;
69856;SDS011;57147;53.582;10.112;2023-06-22T16:24:38;2.20;;;1.60;;
69856;SDS011;57147;53.582;10.112;2023-06-22T16:29:39;3.08;;;1.38;;
69856;SDS011;57147;53.582;10.112;2023-06-22T16:34:45;4.95;;;2.35;;
69856;SDS011;57147;53.582;10.112;2023-06-22T16:39:46;2.88;;;1.63;;
69856;SDS011;57147;53.582;10.112;2023-06-22T16:44:47;4.07;;;3.15;;
69856;SDS011;57147;53.582;10.112;2023-06-22T16:49:50;2.38;;;1.70;;
69856;SDS011;57147;53.582;10.112;2023-06-22T16:54:52;2.75;;;1.60;;
69856;SDS011;57147;53.582;10.112;2023-06-22T16:59:53;2.75;;;1.73;;
69856;SDS011;57147;53.582;10.112;2023-06-22T17:04:56;2.72;;;1.20;;
69856;SDS011;57147;53.582;10.112;2023-06-22T17:09:57;2.28;;;1.77;;
69856;SDS011;57147;53.582;10.112;2023-06-22T17:14:58;3.65;;;2.42;;
69856;SDS011;57147;53.582;10.112;2023-06-22T17:20:03;3.25;;;1.67;;
69856;SDS011;57147;53.582;10.112;2023-06-22T17:25:05;7.05;;;1.73;;
69856;SDS011;57147;53.582;10.112;2023-06-22T17:30:09;3.63;;;1.30;;
69856;SDS011;57147;53.582;10.112;2023-06-22T17:35:15;2.83;;;1.27;;
69856;SDS011;57147;53.582;10.112;2023-06-22T17:40:17;3.70;;;2.30;;
69856;SDS011;57147;53.582;10.112;2023-06-22T17:45:19;3.15;;;1.52;;
69856;SDS011;57147;53.582;10.112;2023-06-22T17:50:24;3.35;;;1.08;;
69856;SDS011;57147;53.582;10.112;2023-06-22T17:55:25;3.00;;;1.13;;
69856;SDS011;57147;53.582;10.112;2023-06-22T18:00:26;2.10;;;1.00;;
69856;SDS011;57147;53.582;10.112;2023-06-22T18:05:31;1.52;;;1.00;;
69856;SDS011;57147;53.582;10.112;2023-06-22T18:10:33;2.50;;;0.90;;
69856;SDS011;57147;53.582;10.112;2023-06-22T18:15:35;2.30;;;1.80;;
69856;SDS011;57147;53.582;10.112;2023-06-22T18:20:41;2.30;;;1.27;;
69856;SDS011;57147;53.582;10.112;2023-06-22T18:25:42;1.52;;;0.82;;
69856;SDS011;57147;53.582;10.112;2023-06-22T18:30:43;2.88;;;1.17;;
69856;SDS011;57147;53.582;10.112;2023-06-22T18:35:47;2.00;;;0.85;;
69856;SDS011;57147;53.582;10.112;2023-06-22T18:40:49;1.80;;;1.20;;
69856;SDS011;57147;53.582;10.112;2023-06-22T18:45:50;3.42;;;1.52;;
69856;SDS011;57147;53.582;10.112;2023-06-22T18:50:59;2.65;;;0.93;;
69856;SDS011;57147;53.582;10.112;2023-06-22T18:56:11;1.92;;;1.33;;
69856;SDS011;57147;53.582;10.112;2023-06-22T19:01:15;2.38;;;0.95;;
69856;SDS011;57147;53.582;10.112;2023-06-22T19:11:50;3.88;;;1.95;;
69856;SDS011;57147;53.582;10.112;2023-06-22T19:17:18;1.92;;;0.88;;
69856;SDS011;57147;53.582;10.112;2023-06-22T19:22:19;2.03;;;0.82;;
69856;SDS011;57147;53.582;10.112;2023-06-22T19:27:45;3.63;;;2.45;;
69856;SDS011;57147;53.582;10.112;2023-06-22T19:32:47;1.90;;;0.80;;
69856;SDS011;57147;53.582;10.112;2023-06-22T19:37:49;1.42;;;1.02;;
69856;SDS011;57147;53.582;10.112;2023-06-22T19:42:55;1.33;;;0.70;;
69856;SDS011;57147;53.582;10.112;2023-06-22T19:47:56;5.53;;;1.50;;
69856;SDS011;57147;53.582;10.112;2023-06-22T19:52:58;1.77;;;0.77;;
69856;SDS011;57147;53.582;10.112;2023-06-22T19:58:01;2.33;;;0.80;;
69856;SDS011;57147;53.582;10.112;2023-06-22T20:03:02;3.42;;;1.70;;
69856;SDS011;57147;53.582;10.112;2023-06-22T20:08:10;2.60;;;1.02;;
69856;SDS011;57147;53.582;10.112;2023-06-22T20:13:14;3.05;;;1.40;;
69856;SDS011;57147;53.582;10.112;2023-06-22T20:18:15;2.47;;;0.80;;
69856;SDS011;57147;53.582;10.112;2023-06-22T20:23:17;1.83;;;0.77;;
69856;SDS011;57147;53.582;10.112;2023-06-22T20:28:24;4.60;;;2.20;;
69856;SDS011;57147;53.582;10.112;2023-06-22T20:33:25;6.60;;;3.45;;
69856;SDS011;57147;53.582;10.112;2023-06-22T20:38:26;4.60;;;2.25;;
69856;SDS011;57147;53.582;10.112;2023-06-22T20:43:30;2.80;;;1.30;;
69856;SDS011;57147;53.582;10.112;2023-06-22T20:48:31;7.13;;;1.92;;
69856;SDS011;57147;53.582;10.112;2023-06-22T20:53:31;11.20;;;2.45;;
69856;SDS011;57147;53.582;10.112;2023-06-22T20:58:35;19.70;;;2.90;;
69856;SDS011;57147;53.582;10.112;2023-06-22T21:03:36;16.63;;;4.15;;
69856;SDS011;57147;53.582;10.112;2023-06-22T21:08:37;47.20;;;5.85;;
69856;SDS011;57147;53.582;10.112;2023-06-22T21:13:40;8.23;;;3.30;;
69856;SDS011;57147;53.582;10.112;2023-06-22T21:18:41;10.90;;;3.08;;
69856;SDS011;57147;53.582;10.112;2023-06-22T21:23:41;10.77;;;4.22;;
69856;SDS011;57147;53.582;10.112;2023-06-22T21:28:45;8.45;;;4.38;;
69856;SDS011;57147;53.582;10.112;2023-06-22T21:33:46;9.52;;;5.00;;
69856;SDS011;57147;53.582;10.112;2023-06-22T21:38:47;44.00;;;7.45;;
69856;SDS011;57147;53.582;10.112;2023-06-22T21:43:50;12.43;;;6.03;;
69856;SDS011;57147;53.582;10.112;2023-06-22T21:48:51;13.88;;;5.55;;
69856;SDS011;57147;53.582;10.112;2023-06-22T21:53:52;11.25;;;4.68;;
69856;SDS011;57147;53.582;10.112;2023-06-22T21:58:55;17.92;;;6.38;;
69856;SDS011;57147;53.582;10.112;2023-06-22T22:03:56;14.70;;;6.07;;
69856;SDS011;57147;53.582;10.112;2023-06-22T22:08:57;11.57;;;5.22;;
69856;SDS011;57147;53.582;10.112;2023-06-22T22:14:01;11.32;;;6.13;;
69856;SDS011;57147;53.582;10.112;2023-06-22T22:19:01;10.30;;;5.55;;
69856;SDS011;57147;53.582;10.112;2023-06-22T22:24:02;12.55;;;7.55;;
69856;SDS011;57147;53.582;10.112;2023-06-22T22:29:05;16.98;;;7.47;;
69856;SDS011;57147;53.582;10.112;2023-06-22T22:34:06;12.75;;;7.25;;
69856;SDS011;57147;53.582;10.112;2023-06-22T22:39:07;13.57;;;6.75;;
69856;SDS011;57147;53.582;10.112;2023-06-22T22:44:11;10.50;;;5.88;;
69856;SDS011;57147;53.582;10.112;2023-06-22T22:54:13;19.70;;;9.10;;
69856;SDS011;57147;53.582;10.112;2023-06-22T22:59:17;42.17;;;12.90;;
69856;SDS011;57147;53.582;10.112;2023-06-22T23:04:17;39.20;;;12.10;;
69856;SDS011;57147;53.582;10.112;2023-06-22T23:09:18;169.95;;;21.65;;
69856;SDS011;57147;53.582;10.112;2023-06-22T23:14:22;49.53;;;13.05;;
69856;SDS011;57147;53.582;10.112;2023-06-22T23:19:22;50.92;;;13.70;;
69856;SDS011;57147;53.582;10.112;2023-06-22T23:24:23;65.60;;;14.68;;
69856;SDS011;57147;53.582;10.112;2023-06-22T23:29:27;47.55;;;13.07;;
69856;SDS011;57147;53.582;10.112;2023-06-22T23:34:27;37.05;;;10.70;;
69856;SDS011;57147;53.582;10.112;2023-06-22T23:39:28;43.42;;;14.00;;
69856;SDS011;57147;53.582;10.112;2023-06-22T23:44:32;56.10;;;15.98;;
69856;SDS011;57147;53.582;10.112;2023-06-22T23:49:33;25.05;;;8.70;;
69856;SDS011;57147;53.582;10.112;2023-06-22T23:54:33;48.55;;;9.73;;
69856;SDS011;57147;53.582;10.112;2023-06-22T23:59:37;100.60;;;18.10;;
